O'Neill, NE (68763)

5:07 PM CST on February 07, 2016 (GMT -0600)
The O'Neill Municipal-Baker | | Change Station
CLOSE
Current Station
Airport
Location: O'Neill,
Elevation: 2031 ft
Nearby Weather Stations
Active Advisory: High Wind Warning

Elev 2031 ft 42.47 °N, 98.69 °W | Updated 12 minutes ago

Overcast
Overcast
37 °F
Feels Like 24 °F
N
33
Wind Variable Wind from NW
Gusts 41 mph

Today
High -- | Low -- °F
--% Chance of Precip.
Yesterday
High -- | Low -- °F
Precip. -- in
Pressure 30.02 in
Visibility 10.0 miles
Clouds Scattered Clouds 4800 ft
Scattered Clouds 6500 ft
Overcast 9500 ft
Windchill 24 °F
Dew Point 23 °F
Humidity 56%
Rainfall 0.00 in
Snow Depth Not available.
7:42 AM 5:55 PM
Waning Crescent, 1% visible
METAR KONL 072255Z AUTO 31029G36KT 10SM SCT048 SCT065 OVC095 03/M05 A3002 RMK AO2 T00281051
Pressure 30.02 in
Visibility 10.0 miles
Clouds Scattered Clouds 4800 ft
Scattered Clouds 6500 ft
Overcast 9500 ft
Windchill 24 °F
Dew Point 23 °F
Humidity 56%
Rainfall 0.00 in
Snow Depth Not available.
7:42 AM 5:55 PM
Waning Crescent, 1% visible
METAR KONL 072255Z AUTO 31029G36KT 10SM SCT048 SCT065 OVC095 03/M05 A3002 RMK AO2 T00281051

10-Day Weather Forecast

Almanac

Astronomy

Feb. 07, 2016 Rise Set
Actual Time
Civil Twilight
Nautical Twilight
Astronomical Twilight
Moon
Length of Visible Light
Length of Day
Tomorrow will be .
, % of the Moon is Illuminated

Today's Extremes

State Highs State Lows

Community

WunderPhotos

Upload Photos

1,891,325 photos uploaded!

WunderBlog® & News

Nearby

Air Quality

  Air Quality AQ Index Pollutant
Not available.

Snow Depth

Station Depth Elevation

Earthquake Activity

City Distance Mag. Time & Date
Minimum magnitude displayed is 2.5.

Coastal Water Temperatures

Place Temperature

Stations

Nearby Weather Stations

Station Location Temp. Windchill Dew Point Humidity Wind Precip. Elev Updated Type
                   

Watches & Warnings

High Wind Warning
Issued: 1:16 PM MST Feb. 7, 2016 – National Weather Service

... High Wind Warning remains in effect until 6 PM CST /5 PM MST/
this evening...

A High Wind Warning remains in effect until 6 PM CST /5 PM MST/
this evening.

* Timing... strong winds will continue through the afternoon and
into early evening

* impacts... any loose snow will be blown around... which will
reduce visibility during travel. Strong cross winds will cause
difficult driving... especially for high profile vehicles.

Precautionary/preparedness actions...

A High Wind Warning means a hazardous high wind event is expected
or occurring. Sustained wind speeds of at least 40 mph or gusts
of 58 mph or more can lead to property damage.